Grand Ledge, Michigan
Current Conditions -  °F | °C
As of 12:53 PM on Friday 24 Oct 2014 (Local Time) from KLAN Reporting Station
Overcast Overcast  
Wind Chill: 58°   Ceiling: 2700
Heat Index: 58°   Visibility: 7mi
Dew Point: 47°   Wind: 6mph
Humidity: 67%   Direction: 260°W
Pressure: 30.05"   Gusts: NA
Location:  42.75°N, 84.74°W
Report Text: KLAN 241653Z 26005KT 7SM OVC027 14/08 A3005 RMK AO2 SLP178 T01440083
Loading
Personal Weather Stations






























Interactive Weather Map
Tropical Storm Tracking
New forecast layout! Learn more

10-Day Weather Forecast

Advertisements
Track Severe Weather on mobile